sensor_id;sensor_type;location;lat;lon;timestamp;pressure;altitude;pressure_sealevel;temperature;humidity
38716;BME280;24833;49.324;8.694;2022-10-31T00:01:32;100216.72;;;16.47;67.88
38716;BME280;24833;49.324;8.694;2022-10-31T00:04:00;100218.81;;;16.45;67.66
38716;BME280;24833;49.324;8.694;2022-10-31T00:06:27;100213.03;;;16.42;67.70
38716;BME280;24833;49.324;8.694;2022-10-31T00:09:00;100219.72;;;16.39;67.59
38716;BME280;24833;49.324;8.694;2022-10-31T00:11:28;100224.28;;;16.39;67.83
38716;BME280;24833;49.324;8.694;2022-10-31T00:13:57;100206.91;;;16.34;68.24
38716;BME280;24833;49.324;8.694;2022-10-31T00:16:26;100214.38;;;16.32;68.42
38716;BME280;24833;49.324;8.694;2022-10-31T00:18:57;100212.34;;;16.28;67.39
38716;BME280;24833;49.324;8.694;2022-10-31T00:21:25;100207.63;;;16.23;68.10
38716;BME280;24833;49.324;8.694;2022-10-31T00:23:52;100206.63;;;16.18;68.41
38716;BME280;24833;49.324;8.694;2022-10-31T00:26:20;100207.72;;;16.10;69.12
38716;BME280;24833;49.324;8.694;2022-10-31T00:28:47;100208.03;;;16.02;68.82
38716;BME280;24833;49.324;8.694;2022-10-31T00:31:14;100209.34;;;15.93;68.07
38716;BME280;24833;49.324;8.694;2022-10-31T00:33:43;100201.16;;;15.81;68.75
38716;BME280;24833;49.324;8.694;2022-10-31T00:36:15;100204.31;;;15.71;69.12
38716;BME280;24833;49.324;8.694;2022-10-31T00:38:43;100201.69;;;15.65;68.90
38716;BME280;24833;49.324;8.694;2022-10-31T00:41:13;100199.84;;;15.59;69.12
38716;BME280;24833;49.324;8.694;2022-10-31T00:43:42;100204.22;;;15.53;69.15
38716;BME280;24833;49.324;8.694;2022-10-31T00:46:11;100201.78;;;15.45;70.56
38716;BME280;24833;49.324;8.694;2022-10-31T00:48:38;100207.22;;;15.38;70.58
38716;BME280;24833;49.324;8.694;2022-10-31T00:51:05;100198.13;;;15.33;70.18
38716;BME280;24833;49.324;8.694;2022-10-31T00:53:32;100207.88;;;15.27;69.75
38716;BME280;24833;49.324;8.694;2022-10-31T00:55:59;100209.75;;;15.26;70.67
38716;BME280;24833;49.324;8.694;2022-10-31T00:58:27;100199.22;;;15.25;70.35
38716;BME280;24833;49.324;8.694;2022-10-31T01:00:54;100196.53;;;15.25;70.94
38716;BME280;24833;49.324;8.694;2022-10-31T01:03:24;100208.13;;;15.25;71.01
38716;BME280;24833;49.324;8.694;2022-10-31T01:06:03;100208.13;;;15.25;69.28
38716;BME280;24833;49.324;8.694;2022-10-31T01:08:33;100204.16;;;15.28;69.61
38716;BME280;24833;49.324;8.694;2022-10-31T01:11:07;100204.97;;;15.29;69.66
38716;BME280;24833;49.324;8.694;2022-10-31T01:13:35;100213.47;;;15.32;69.42
38716;BME280;24833;49.324;8.694;2022-10-31T01:16:05;100208.06;;;15.32;68.94
38716;BME280;24833;49.324;8.694;2022-10-31T01:18:33;100214.47;;;15.31;68.76
38716;BME280;24833;49.324;8.694;2022-10-31T01:21:08;100210.78;;;15.32;68.28
38716;BME280;24833;49.324;8.694;2022-10-31T01:23:36;100212.63;;;15.32;68.35
38716;BME280;24833;49.324;8.694;2022-10-31T01:26:11;100213.06;;;15.29;68.40
38716;BME280;24833;49.324;8.694;2022-10-31T01:28:46;100215.13;;;15.26;68.23
38716;BME280;24833;49.324;8.694;2022-10-31T01:31:14;100220.09;;;15.23;68.39
38716;BME280;24833;49.324;8.694;2022-10-31T01:33:42;100216.22;;;15.19;67.89
38716;BME280;24833;49.324;8.694;2022-10-31T01:36:45;100216.44;;;15.11;67.27
38716;BME280;24833;49.324;8.694;2022-10-31T01:39:15;100225.78;;;15.08;67.67
38716;BME280;24833;49.324;8.694;2022-10-31T01:41:46;100220.19;;;15.03;67.84
38716;BME280;24833;49.324;8.694;2022-10-31T01:49:41;100227.69;;;14.94;67.34
38716;BME280;24833;49.324;8.694;2022-10-31T01:52:20;100227.28;;;14.91;67.44
38716;BME280;24833;49.324;8.694;2022-10-31T01:55:18;100225.25;;;14.86;67.19
38716;BME280;24833;49.324;8.694;2022-10-31T01:57:53;100225.66;;;14.83;67.41
38716;BME280;24833;49.324;8.694;2022-10-31T02:00:22;100213.69;;;14.79;67.49
38716;BME280;24833;49.324;8.694;2022-10-31T02:02:51;100218.88;;;14.74;67.46
38716;BME280;24833;49.324;8.694;2022-10-31T02:05:22;100213.28;;;14.69;67.28
38716;BME280;24833;49.324;8.694;2022-10-31T02:08:07;100221.16;;;14.64;67.46
38716;BME280;24833;49.324;8.694;2022-10-31T02:10:36;100211.88;;;14.60;67.95
38716;BME280;24833;49.324;8.694;2022-10-31T02:13:06;100209.81;;;14.55;67.88
38716;BME280;24833;49.324;8.694;2022-10-31T02:15:40;100210.44;;;14.51;67.39
38716;BME280;24833;49.324;8.694;2022-10-31T02:18:09;100214.59;;;14.47;67.82
38716;BME280;24833;49.324;8.694;2022-10-31T02:21:20;100210.44;;;14.37;66.78
38716;BME280;24833;49.324;8.694;2022-10-31T02:27:05;100208.19;;;14.34;67.18
38716;BME280;24833;49.324;8.694;2022-10-31T02:30:16;100211.31;;;14.31;66.93
38716;BME280;24833;49.324;8.694;2022-10-31T02:35:40;100211.31;;;14.31;68.68
38716;BME280;24833;49.324;8.694;2022-10-31T02:41:48;100200.13;;;14.28;67.48
38716;BME280;24833;49.324;8.694;2022-10-31T02:44:44;100201.16;;;14.27;68.19
38716;BME280;24833;49.324;8.694;2022-10-31T02:47:16;100199.91;;;14.29;69.60
38716;BME280;24833;49.324;8.694;2022-10-31T02:50:04;100196.00;;;14.25;69.55
38716;BME280;24833;49.324;8.694;2022-10-31T02:52:35;100200.97;;;14.22;69.58
38716;BME280;24833;49.324;8.694;2022-10-31T02:58:09;100186.31;;;14.04;68.74
38716;BME280;24833;49.324;8.694;2022-10-31T03:01:07;100184.66;;;13.97;68.66
38716;BME280;24833;49.324;8.694;2022-10-31T03:09:33;100191.50;;;13.93;70.49
38716;BME280;24833;49.324;8.694;2022-10-31T03:17:29;100197.25;;;13.96;69.63
38716;BME280;24833;49.324;8.694;2022-10-31T03:20:00;100194.38;;;13.98;71.04
38716;BME280;24833;49.324;8.694;2022-10-31T03:22:31;100197.69;;;14.00;70.28
38716;BME280;24833;49.324;8.694;2022-10-31T03:25:02;100187.34;;;14.03;71.19
38716;BME280;24833;49.324;8.694;2022-10-31T03:27:34;100193.13;;;14.07;71.98
38716;BME280;24833;49.324;8.694;2022-10-31T03:30:06;100191.88;;;14.09;71.25
38716;BME280;24833;49.324;8.694;2022-10-31T03:32:52;100191.25;;;14.14;72.62
38716;BME280;24833;49.324;8.694;2022-10-31T03:35:24;100196.22;;;14.17;71.57
38716;BME280;24833;49.324;8.694;2022-10-31T03:37:54;100190.44;;;14.20;71.65
38716;BME280;24833;49.324;8.694;2022-10-31T03:40:23;100196.84;;;14.26;73.16
38716;BME280;24833;49.324;8.694;2022-10-31T03:42:58;100185.28;;;14.25;72.54
38716;BME280;24833;49.324;8.694;2022-10-31T03:45:30;100194.53;;;14.29;72.49
38716;BME280;24833;49.324;8.694;2022-10-31T03:47:58;100195.59;;;14.28;71.95
38716;BME280;24833;49.324;8.694;2022-10-31T03:50:38;100188.56;;;14.27;72.61
38716;BME280;24833;49.324;8.694;2022-10-31T03:53:19;100189.38;;;14.28;71.58
38716;BME280;24833;49.324;8.694;2022-10-31T03:55:55;100195.59;;;14.28;71.73
38716;BME280;24833;49.324;8.694;2022-10-31T03:58:32;100187.13;;;14.31;72.12
38716;BME280;24833;49.324;8.694;2022-10-31T04:01:06;100179.44;;;14.35;73.52
38716;BME280;24833;49.324;8.694;2022-10-31T04:03:38;100173.84;;;14.36;73.33
38716;BME280;24833;49.324;8.694;2022-10-31T04:06:09;100175.31;;;14.39;72.45
38716;BME280;24833;49.324;8.694;2022-10-31T04:08:46;100173.03;;;14.42;72.89
38716;BME280;24833;49.324;8.694;2022-10-31T04:11:21;100162.91;;;14.44;73.85
38716;BME280;24833;49.324;8.694;2022-10-31T04:14:11;100158.16;;;14.47;73.54
38716;BME280;24833;49.324;8.694;2022-10-31T04:16:43;100159.81;;;14.48;73.57
38716;BME280;24833;49.324;8.694;2022-10-31T04:19:12;100160.41;;;14.50;74.21
38716;BME280;24833;49.324;8.694;2022-10-31T04:21:40;100162.91;;;14.51;74.00
38716;BME280;24833;49.324;8.694;2022-10-31T04:24:10;100150.91;;;14.54;73.37
38716;BME280;24833;49.324;8.694;2022-10-31T04:26:38;100153.16;;;14.57;73.22
38716;BME280;24833;49.324;8.694;2022-10-31T04:29:06;100156.25;;;14.60;73.79
38716;BME280;24833;49.324;8.694;2022-10-31T04:31:33;100166.78;;;14.62;73.74
38716;BME280;24833;49.324;8.694;2022-10-31T04:34:00;100170.91;;;14.64;73.44
38716;BME280;24833;49.324;8.694;2022-10-31T04:36:27;100169.06;;;14.65;72.62
38716;BME280;24833;49.324;8.694;2022-10-31T04:38:55;100164.53;;;14.65;71.98
38716;BME280;24833;49.324;8.694;2022-10-31T04:41:35;100170.72;;;14.66;71.92
38716;BME280;24833;49.324;8.694;2022-10-31T04:44:06;100167.41;;;14.64;71.55
38716;BME280;24833;49.324;8.694;2022-10-31T04:46:33;100170.09;;;14.64;71.61
38716;BME280;24833;49.324;8.694;2022-10-31T04:49:02;100165.97;;;14.61;71.40
38716;BME280;24833;49.324;8.694;2022-10-31T04:51:29;100173.22;;;14.61;71.71
38716;BME280;24833;49.324;8.694;2022-10-31T04:53:56;100170.75;;;14.59;71.50
38716;BME280;24833;49.324;8.694;2022-10-31T04:56:42;100178.38;;;14.56;71.28
38716;BME280;24833;49.324;8.694;2022-10-31T04:59:14;100188.94;;;14.51;71.26
38716;BME280;24833;49.324;8.694;2022-10-31T05:01:51;100181.09;;;14.42;70.79
38716;BME280;24833;49.324;8.694;2022-10-31T05:04:25;100184.81;;;14.35;70.72
38716;BME280;24833;49.324;8.694;2022-10-31T05:06:52;100187.75;;;14.27;70.57
38716;BME280;24833;49.324;8.694;2022-10-31T05:09:19;100186.09;;;14.19;70.21
38716;BME280;24833;49.324;8.694;2022-10-31T05:11:46;100188.97;;;14.11;70.40
38716;BME280;24833;49.324;8.694;2022-10-31T05:14:45;100184.25;;;14.00;70.42
38716;BME280;24833;49.324;8.694;2022-10-31T05:17:33;100186.34;;;13.91;70.13
38716;BME280;24833;49.324;8.694;2022-10-31T05:20:24;100185.69;;;13.82;70.10
38716;BME280;24833;49.324;8.694;2022-10-31T05:23:10;100193.13;;;13.74;70.18
38716;BME280;24833;49.324;8.694;2022-10-31T05:25:40;100203.88;;;13.67;70.03
38716;BME280;24833;49.324;8.694;2022-10-31T05:28:07;100194.97;;;13.60;70.25
38716;BME280;24833;49.324;8.694;2022-10-31T05:30:35;100196.84;;;13.53;70.03
38716;BME280;24833;49.324;8.694;2022-10-31T05:33:03;100190.41;;;13.47;69.67
38716;BME280;24833;49.324;8.694;2022-10-31T05:35:53;100187.94;;;13.39;69.93
38716;BME280;24833;49.324;8.694;2022-10-31T05:38:38;100179.03;;;13.32;70.00
38716;BME280;24833;49.324;8.694;2022-10-31T05:41:13;100175.31;;;13.26;69.59
38716;BME280;24833;49.324;8.694;2022-10-31T05:43:45;100154.69;;;13.20;70.05
38716;BME280;24833;49.324;8.694;2022-10-31T05:46:12;100155.25;;;13.16;69.34
38716;BME280;24833;49.324;8.694;2022-10-31T05:48:59;100157.09;;;13.08;69.67
38716;BME280;24833;49.324;8.694;2022-10-31T05:52:00;100160.16;;;12.99;69.17
38716;BME280;24833;49.324;8.694;2022-10-31T05:54:37;100168.41;;;12.97;69.81
38716;BME280;24833;49.324;8.694;2022-10-31T05:57:04;100176.00;;;12.94;69.42
38716;BME280;24833;49.324;8.694;2022-10-31T05:59:31;100172.88;;;12.90;69.77
38716;BME280;24833;49.324;8.694;2022-10-31T06:02:00;100179.69;;;12.86;69.52
38716;BME280;24833;49.324;8.694;2022-10-31T06:04:47;100176.59;;;12.82;69.54
38716;BME280;24833;49.324;8.694;2022-10-31T06:07:15;100170.59;;;12.80;69.25
38716;BME280;24833;49.324;8.694;2022-10-31T06:09:42;100171.84;;;12.78;69.27
38716;BME280;24833;49.324;8.694;2022-10-31T06:12:10;100168.50;;;12.76;69.63
38716;BME280;24833;49.324;8.694;2022-10-31T06:15:12;100179.66;;;12.73;69.33
38716;BME280;24833;49.324;8.694;2022-10-31T06:17:41;100173.84;;;12.69;69.62
38716;BME280;24833;49.324;8.694;2022-10-31T06:20:09;100178.59;;;12.67;69.73
38716;BME280;24833;49.324;8.694;2022-10-31T06:22:46;100176.31;;;12.64;69.23
38716;BME280;24833;49.324;8.694;2022-10-31T06:25:13;100170.31;;;12.62;69.49
38716;BME280;24833;49.324;8.694;2022-10-31T06:27:45;100174.00;;;12.61;69.42
38716;BME280;24833;49.324;8.694;2022-10-31T06:30:14;100176.06;;;12.59;69.41
38716;BME280;24833;49.324;8.694;2022-10-31T06:32:42;100173.59;;;12.58;69.58
38716;BME280;24833;49.324;8.694;2022-10-31T06:35:09;100175.63;;;12.55;69.44
38716;BME280;24833;49.324;8.694;2022-10-31T06:37:37;100181.19;;;12.54;69.43
38716;BME280;24833;49.324;8.694;2022-10-31T06:40:27;100176.88;;;12.53;69.79
38716;BME280;24833;49.324;8.694;2022-10-31T06:43:15;100180.38;;;12.53;69.62
38716;BME280;24833;49.324;8.694;2022-10-31T06:45:43;100182.44;;;12.51;69.70
38716;BME280;24833;49.324;8.694;2022-10-31T06:48:41;100172.53;;;12.52;69.82
38716;BME280;24833;49.324;8.694;2022-10-31T06:51:18;100177.69;;;12.53;69.39
38716;BME280;24833;49.324;8.694;2022-10-31T06:53:45;100171.09;;;12.56;69.77
38716;BME280;24833;49.324;8.694;2022-10-31T06:56:15;100169.91;;;12.59;69.67
38716;BME280;24833;49.324;8.694;2022-10-31T06:58:47;100166.19;;;12.60;70.22
38716;BME280;24833;49.324;8.694;2022-10-31T07:01:16;100166.59;;;12.63;70.04
38716;BME280;24833;49.324;8.694;2022-10-31T07:03:44;100167.25;;;12.65;70.28
38716;BME280;24833;49.324;8.694;2022-10-31T07:06:11;100170.13;;;12.70;70.10
38716;BME280;24833;49.324;8.694;2022-10-31T07:08:38;100164.38;;;12.73;70.46
38716;BME280;24833;49.324;8.694;2022-10-31T07:11:06;100168.94;;;12.79;70.51
38716;BME280;24833;49.324;8.694;2022-10-31T07:13:33;100164.00;;;12.83;70.61
38716;BME280;24833;49.324;8.694;2022-10-31T07:16:05;100166.91;;;12.88;70.75
38716;BME280;24833;49.324;8.694;2022-10-31T07:18:35;100169.00;;;12.93;70.55
38716;BME280;24833;49.324;8.694;2022-10-31T07:21:03;100173.78;;;12.97;70.91
38716;BME280;24833;49.324;8.694;2022-10-31T07:23:31;100176.66;;;13.02;70.35
38716;BME280;24833;49.324;8.694;2022-10-31T07:26:19;100176.06;;;13.07;70.84
38716;BME280;24833;49.324;8.694;2022-10-31T07:28:47;100169.06;;;13.13;70.98
38716;BME280;24833;49.324;8.694;2022-10-31T07:31:17;100172.16;;;13.16;71.01
38716;BME280;24833;49.324;8.694;2022-10-31T07:33:45;100179.41;;;13.22;70.78
38716;BME280;24833;49.324;8.694;2022-10-31T07:36:27;100175.31;;;13.26;71.31
38716;BME280;24833;49.324;8.694;2022-10-31T07:38:58;100183.59;;;13.31;70.95
38716;BME280;24833;49.324;8.694;2022-10-31T07:41:26;100174.09;;;13.35;71.27
38716;BME280;24833;49.324;8.694;2022-10-31T07:43:53;100169.97;;;13.40;70.95
38716;BME280;24833;49.324;8.694;2022-10-31T07:46:40;100179.91;;;13.46;71.68
38716;BME280;24833;49.324;8.694;2022-10-31T07:49:26;100182.81;;;13.51;70.93
38716;BME280;24833;49.324;8.694;2022-10-31T07:52:12;100174.94;;;13.56;71.49
38716;BME280;24833;49.324;8.694;2022-10-31T07:54:57;100175.78;;;13.63;71.45
38716;BME280;24833;49.324;8.694;2022-10-31T07:57:25;100178.66;;;13.68;71.25
38716;BME280;24833;49.324;8.694;2022-10-31T07:59:56;100179.50;;;13.75;71.60
38716;BME280;24833;49.324;8.694;2022-10-31T08:02:24;100177.03;;;13.80;71.82
38716;BME280;24833;49.324;8.694;2022-10-31T08:05:26;100185.69;;;13.89;71.90
38716;BME280;24833;49.324;8.694;2022-10-31T08:08:19;100181.97;;;13.97;72.03
38716;BME280;24833;49.324;8.694;2022-10-31T08:10:47;100183.81;;;14.03;71.86
38716;BME280;24833;49.324;8.694;2022-10-31T08:13:14;100181.97;;;14.10;71.64
38716;BME280;24833;49.324;8.694;2022-10-31T08:15:45;100184.44;;;14.18;71.70
38716;BME280;24833;49.324;8.694;2022-10-31T08:18:16;100181.94;;;14.23;71.79
38716;BME280;24833;49.324;8.694;2022-10-31T08:20:44;100178.41;;;14.29;72.08
38716;BME280;24833;49.324;8.694;2022-10-31T08:23:12;100180.28;;;14.35;71.97
38716;BME280;24833;49.324;8.694;2022-10-31T08:25:41;100172.41;;;14.40;71.85
38716;BME280;24833;49.324;8.694;2022-10-31T08:28:10;100179.03;;;14.44;72.07
38716;BME280;24833;49.324;8.694;2022-10-31T08:30:41;100170.34;;;14.49;71.64
38716;BME280;24833;49.324;8.694;2022-10-31T08:33:27;100167.63;;;14.56;71.84
38716;BME280;24833;49.324;8.694;2022-10-31T08:36:16;100168.66;;;14.61;72.51
38716;BME280;24833;49.324;8.694;2022-10-31T08:39:05;100164.31;;;14.67;72.19
38716;BME280;24833;49.324;8.694;2022-10-31T08:41:32;100160.13;;;14.71;72.51
38716;BME280;24833;49.324;8.694;2022-10-31T08:44:00;100161.97;;;14.77;72.59
38716;BME280;24833;49.324;8.694;2022-10-31T08:46:27;100159.47;;;14.82;72.98
38716;BME280;24833;49.324;8.694;2022-10-31T08:48:54;100157.81;;;14.88;72.16
38716;BME280;24833;49.324;8.694;2022-10-31T08:51:22;100153.66;;;14.92;72.48
38716;BME280;24833;49.324;8.694;2022-10-31T08:53:52;100159.41;;;14.95;72.36
38716;BME280;24833;49.324;8.694;2022-10-31T08:56:22;100155.50;;;14.98;72.54
38716;BME280;24833;49.324;8.694;2022-10-31T08:58:49;100160.22;;;15.03;72.64
38716;BME280;24833;49.324;8.694;2022-10-31T09:01:22;100159.34;;;15.09;72.52
38716;BME280;24833;49.324;8.694;2022-10-31T09:03:49;100151.47;;;15.14;72.25
38716;BME280;24833;49.324;8.694;2022-10-31T09:06:16;100147.69;;;15.21;72.53
38716;BME280;24833;49.324;8.694;2022-10-31T09:08:47;100149.28;;;15.29;73.08
38716;BME280;24833;49.324;8.694;2022-10-31T09:11:14;100148.00;;;15.38;73.15
38716;BME280;24833;49.324;8.694;2022-10-31T09:14:03;100148.34;;;15.48;73.10
38716;BME280;24833;49.324;8.694;2022-10-31T09:16:50;100146.00;;;15.59;72.95
38716;BME280;24833;49.324;8.694;2022-10-31T09:19:22;100159.81;;;15.69;73.63
38716;BME280;24833;49.324;8.694;2022-10-31T09:21:53;100155.59;;;15.79;73.10
38716;BME280;24833;49.324;8.694;2022-10-31T09:24:21;100160.47;;;15.89;73.32
38716;BME280;24833;49.324;8.694;2022-10-31T09:26:48;100152.09;;;15.97;73.20
38716;BME280;24833;49.324;8.694;2022-10-31T09:29:25;100146.00;;;16.08;73.46
38716;BME280;24833;49.324;8.694;2022-10-31T09:31:57;100152.72;;;16.18;73.72
38716;BME280;24833;49.324;8.694;2022-10-31T09:34:27;100152.22;;;16.27;73.73
38716;BME280;24833;49.324;8.694;2022-10-31T09:37:02;100147.34;;;16.36;73.73
38716;BME280;24833;49.324;8.694;2022-10-31T09:39:29;100158.91;;;16.43;73.87
38716;BME280;24833;49.324;8.694;2022-10-31T09:54:14;100146.25;;;16.80;73.33
38716;BME280;24833;49.324;8.694;2022-10-31T09:56:43;100151.81;;;16.85;73.54
38716;BME280;24833;49.324;8.694;2022-10-31T09:59:34;100148.16;;;16.92;73.95
38716;BME280;24833;49.324;8.694;2022-10-31T10:05:03;100147.16;;;17.04;73.72
38716;BME280;24833;49.324;8.694;2022-10-31T10:08:22;100143.56;;;17.10;73.50
38716;BME280;24833;49.324;8.694;2022-10-31T10:20:39;100124.13;;;17.32;73.79
38716;BME280;24833;49.324;8.694;2022-10-31T10:26:17;100121.72;;;17.42;73.90
38716;BME280;24833;49.324;8.694;2022-10-31T10:29:01;100115.84;;;17.45;74.07
38716;BME280;24833;49.324;8.694;2022-10-31T10:31:37;100114.34;;;17.49;73.80
38716;BME280;24833;49.324;8.694;2022-10-31T10:34:22;100115.72;;;17.52;73.77
38716;BME280;24833;49.324;8.694;2022-10-31T10:37:03;100117.75;;;17.56;73.87
38716;BME280;24833;49.324;8.694;2022-10-31T10:42:13;100107.06;;;17.61;73.65
38716;BME280;24833;49.324;8.694;2022-10-31T10:45:06;100097.47;;;17.65;73.80
38716;BME280;24833;49.324;8.694;2022-10-31T10:48:27;100095.91;;;17.69;73.53
38716;BME280;24833;49.324;8.694;2022-10-31T10:51:32;100081.34;;;17.70;73.80
38716;BME280;24833;49.324;8.694;2022-10-31T11:00:13;100076.09;;;17.76;73.64
38716;BME280;24833;49.324;8.694;2022-10-31T11:02:42;100074.59;;;17.80;73.87
38716;BME280;24833;49.324;8.694;2022-10-31T11:08:03;100071.53;;;17.88;74.13
38716;BME280;24833;49.324;8.694;2022-10-31T11:10:31;100071.84;;;17.91;73.98
38716;BME280;24833;49.324;8.694;2022-10-31T11:15:49;100067.38;;;17.97;74.00
38716;BME280;24833;49.324;8.694;2022-10-31T11:18:22;100065.88;;;18.01;74.02
38716;BME280;24833;49.324;8.694;2022-10-31T11:21:00;100055.63;;;18.03;74.00
38716;BME280;24833;49.324;8.694;2022-10-31T11:23:28;100051.66;;;18.06;74.15
38716;BME280;24833;49.324;8.694;2022-10-31T11:26:06;100055.75;;;18.08;73.91
38716;BME280;24833;49.324;8.694;2022-10-31T11:28:59;100049.84;;;18.11;74.20
38716;BME280;24833;49.324;8.694;2022-10-31T11:31:27;100041.53;;;18.13;73.89
38716;BME280;24833;49.324;8.694;2022-10-31T11:34:11;100036.44;;;18.16;74.03
38716;BME280;24833;49.324;8.694;2022-10-31T11:36:43;100041.63;;;18.18;74.14
38716;BME280;24833;49.324;8.694;2022-10-31T11:39:20;100036.00;;;18.19;74.29
38716;BME280;24833;49.324;8.694;2022-10-31T11:41:50;100029.53;;;18.20;74.26
38716;BME280;24833;49.324;8.694;2022-10-31T11:44:28;100028.22;;;18.23;74.04
38716;BME280;24833;49.324;8.694;2022-10-31T11:46:59;100029.84;;;18.24;74.28
38716;BME280;24833;49.324;8.694;2022-10-31T11:49:37;100029.63;;;18.26;74.13
38716;BME280;24833;49.324;8.694;2022-10-31T11:57:49;100008.06;;;18.31;73.98
38716;BME280;24833;49.324;8.694;2022-10-31T12:00:28;100006.53;;;18.35;74.21
38716;BME280;24833;49.324;8.694;2022-10-31T12:06:22;99997.72;;;18.39;74.19
38716;BME280;24833;49.324;8.694;2022-10-31T12:08:50;99985.84;;;18.40;73.98
38716;BME280;24833;49.324;8.694;2022-10-31T12:14:31;99980.50;;;18.45;74.25
38716;BME280;24833;49.324;8.694;2022-10-31T12:17:34;99978.41;;;18.47;74.37
38716;BME280;24833;49.324;8.694;2022-10-31T12:20:54;99986.50;;;18.47;74.28
38716;BME280;24833;49.324;8.694;2022-10-31T12:27:24;99993.44;;;18.43;73.95
38716;BME280;24833;49.324;8.694;2022-10-31T12:30:24;99991.00;;;18.42;73.83
38716;BME280;24833;49.324;8.694;2022-10-31T12:33:15;99991.47;;;18.39;73.81
38716;BME280;24833;49.324;8.694;2022-10-31T12:53:23;99955.06;;;18.30;73.72
38716;BME280;24833;49.324;8.694;2022-10-31T12:56:28;99951.53;;;18.29;73.73
38716;BME280;24833;49.324;8.694;2022-10-31T12:59:20;99947.19;;;18.28;73.55
38716;BME280;24833;49.324;8.694;2022-10-31T13:05:05;99926.38;;;18.29;73.81
38716;BME280;24833;49.324;8.694;2022-10-31T13:07:41;99913.44;;;18.31;73.96
38716;BME280;24833;49.324;8.694;2022-10-31T13:12:45;99882.97;;;18.35;73.81
38716;BME280;24833;49.324;8.694;2022-10-31T13:15:19;99866.03;;;18.40;74.04
38716;BME280;24833;49.324;8.694;2022-10-31T13:17:52;99856.59;;;18.42;73.89
38716;BME280;24833;49.324;8.694;2022-10-31T13:20:42;99857.41;;;18.43;73.80
38716;BME280;24833;49.324;8.694;2022-10-31T13:23:29;99850.13;;;18.43;73.70
38716;BME280;24833;49.324;8.694;2022-10-31T13:29:33;99852.50;;;18.40;73.43
38716;BME280;24833;49.324;8.694;2022-10-31T13:32:06;99855.44;;;18.38;73.55
38716;BME280;24833;49.324;8.694;2022-10-31T13:34:44;99857.09;;;18.39;73.55
38716;BME280;24833;49.324;8.694;2022-10-31T13:38:18;99855.44;;;18.38;73.56
38716;BME280;24833;49.324;8.694;2022-10-31T13:40:42;99855.22;;;18.40;73.50
38716;BME280;24833;49.324;8.694;2022-10-31T13:46:39;99865.88;;;18.46;73.59
38716;BME280;24833;49.324;8.694;2022-10-31T13:52:25;99864.72;;;18.59;74.34
38716;BME280;24833;49.324;8.694;2022-10-31T13:54:54;99858.94;;;18.67;74.24
38716;BME280;24833;49.324;8.694;2022-10-31T13:57:38;99862.38;;;18.80;74.95
38716;BME280;24833;49.324;8.694;2022-10-31T14:02:56;99893.03;;;19.02;74.79
38716;BME280;24833;49.324;8.694;2022-10-31T14:05:32;99887.25;;;19.15;74.96
38716;BME280;24833;49.324;8.694;2022-10-31T14:08:02;99889.06;;;19.26;74.85
38716;BME280;24833;49.324;8.694;2022-10-31T14:10:38;99870.22;;;19.37;74.85
38716;BME280;24833;49.324;8.694;2022-10-31T14:15:57;99869.09;;;19.54;74.77
38716;BME280;24833;49.324;8.694;2022-10-31T14:18:31;99868.13;;;19.61;74.54
38716;BME280;24833;49.324;8.694;2022-10-31T14:20:59;99877.13;;;19.66;74.41
38716;BME280;24833;49.324;8.694;2022-10-31T14:23:39;99871.47;;;19.68;73.36
38716;BME280;24833;49.324;8.694;2022-10-31T14:31:41;99865.25;;;19.72;73.91
38716;BME280;24833;49.324;8.694;2022-10-31T14:34:21;99855.28;;;19.73;73.75
38716;BME280;24833;49.324;8.694;2022-10-31T14:42:52;99838.88;;;19.63;74.08
38716;BME280;24833;49.324;8.694;2022-10-31T14:51:36;99828.59;;;19.43;73.32
38716;BME280;24833;49.324;8.694;2022-10-31T14:54:07;99829.59;;;19.37;72.97
38716;BME280;24833;49.324;8.694;2022-10-31T14:56:48;99836.00;;;19.30;73.28
38716;BME280;24833;49.324;8.694;2022-10-31T14:59:24;99840.78;;;19.23;73.09
38716;BME280;24833;49.324;8.694;2022-10-31T15:02:14;99845.81;;;19.15;73.00
38716;BME280;24833;49.324;8.694;2022-10-31T15:04:44;99841.66;;;19.07;72.69
38716;BME280;24833;49.324;8.694;2022-10-31T15:07:21;99845.38;;;19.01;72.67
38716;BME280;24833;49.324;8.694;2022-10-31T15:10:04;99849.53;;;18.92;72.87
38716;BME280;24833;49.324;8.694;2022-10-31T15:12:35;99854.09;;;18.86;72.72
38716;BME280;24833;49.324;8.694;2022-10-31T15:15:22;99848.25;;;18.77;72.81
38716;BME280;24833;49.324;8.694;2022-10-31T15:17:57;99843.25;;;18.69;72.67
38716;BME280;24833;49.324;8.694;2022-10-31T15:20:29;99844.22;;;18.63;72.66
38716;BME280;24833;49.324;8.694;2022-10-31T15:22:58;99819.78;;;18.58;72.24
38716;BME280;24833;49.324;8.694;2022-10-31T15:25:33;99822.44;;;18.53;72.40
38716;BME280;24833;49.324;8.694;2022-10-31T15:28:01;99831.03;;;18.50;72.36
38716;BME280;24833;49.324;8.694;2022-10-31T15:30:29;99828.22;;;18.45;72.36
38716;BME280;24833;49.324;8.694;2022-10-31T15:32:56;99816.28;;;18.41;71.91
38716;BME280;24833;49.324;8.694;2022-10-31T15:35:30;99806.44;;;18.35;72.32
38716;BME280;24833;49.324;8.694;2022-10-31T15:37:58;99786.88;;;18.28;72.16
38716;BME280;24833;49.324;8.694;2022-10-31T15:40:27;99773.25;;;18.22;71.94
38716;BME280;24833;49.324;8.694;2022-10-31T15:42:57;99766.13;;;18.16;72.01
38716;BME280;24833;49.324;8.694;2022-10-31T15:45:27;99766.28;;;18.10;71.79
38716;BME280;24833;49.324;8.694;2022-10-31T15:47:57;99765.16;;;18.06;71.95
38716;BME280;24833;49.324;8.694;2022-10-31T15:53:05;99766.03;;;17.94;71.64
38716;BME280;24833;49.324;8.694;2022-10-31T15:55:38;99758.66;;;17.90;71.79
38716;BME280;24833;49.324;8.694;2022-10-31T15:58:14;99747.75;;;17.85;71.85
38716;BME280;24833;49.324;8.694;2022-10-31T16:00:43;99732.28;;;17.80;71.74